sensor_id;sensor_type;location;lat;lon;timestamp;pressure;altitude;pressure_sealevel;temperature;humidity
18527;BME280;9393;42.158;24.748;2023-02-02T00:00:27;99628.03;;;7.79;45.35
18527;BME280;9393;42.158;24.748;2023-02-02T00:03:32;99630.50;;;7.69;45.28
18527;BME280;9393;42.158;24.748;2023-02-02T00:06:36;99643.34;;;7.82;45.69
18527;BME280;9393;42.158;24.748;2023-02-02T00:09:40;99645.03;;;7.72;45.69
18527;BME280;9393;42.158;24.748;2023-02-02T00:12:43;99637.94;;;7.62;46.21
18527;BME280;9393;42.158;24.748;2023-02-02T00:15:47;99649.97;;;7.63;46.28
18527;BME280;9393;42.158;24.748;2023-02-02T00:18:53;99646.91;;;7.58;46.82
18527;BME280;9393;42.158;24.748;2023-02-02T00:21:56;99654.84;;;7.57;47.18
18527;BME280;9393;42.158;24.748;2023-02-02T00:25:00;99644.88;;;7.73;47.33
18527;BME280;9393;42.158;24.748;2023-02-02T00:28:04;99655.50;;;7.70;47.39
18527;BME280;9393;42.158;24.748;2023-02-02T00:31:08;99650.81;;;7.42;48.02
18527;BME280;9393;42.158;24.748;2023-02-02T00:34:14;99647.88;;;7.46;48.02
18527;BME280;9393;42.158;24.748;2023-02-02T00:37:20;99649.63;;;7.57;47.65
18527;BME280;9393;42.158;24.748;2023-02-02T00:40:24;99651.06;;;7.61;47.00
18527;BME280;9393;42.158;24.748;2023-02-02T00:43:28;99651.66;;;7.20;48.01
18527;BME280;9393;42.158;24.748;2023-02-02T00:46:31;99643.63;;;7.56;47.43
18527;BME280;9393;42.158;24.748;2023-02-02T00:49:36;99641.38;;;7.63;46.97
18527;BME280;9393;42.158;24.748;2023-02-02T00:52:40;99641.25;;;7.65;47.24
18527;BME280;9393;42.158;24.748;2023-02-02T00:55:43;99645.75;;;7.51;47.23
18527;BME280;9393;42.158;24.748;2023-02-02T00:58:47;99631.47;;;7.57;47.34
18527;BME280;9393;42.158;24.748;2023-02-02T01:01:51;99631.31;;;7.70;46.98
18527;BME280;9393;42.158;24.748;2023-02-02T01:04:56;99639.69;;;7.73;46.39
18527;BME280;9393;42.158;24.748;2023-02-02T01:08:00;99655.50;;;7.70;46.90
18527;BME280;9393;42.158;24.748;2023-02-02T01:11:04;99645.97;;;7.48;47.15
18527;BME280;9393;42.158;24.748;2023-02-02T01:14:07;99643.97;;;7.63;46.81
18527;BME280;9393;42.158;24.748;2023-02-02T01:17:12;99642.53;;;7.70;46.52
18527;BME280;9393;42.158;24.748;2023-02-02T01:20:19;99649.41;;;7.49;46.94
18527;BME280;9393;42.158;24.748;2023-02-02T01:23:22;99655.75;;;7.67;46.61
18527;BME280;9393;42.158;24.748;2023-02-02T01:26:27;99657.19;;;7.49;46.64
18527;BME280;9393;42.158;24.748;2023-02-02T01:29:31;99665.06;;;7.70;46.67
18527;BME280;9393;42.158;24.748;2023-02-02T01:32:35;99666.97;;;7.68;46.83
18527;BME280;9393;42.158;24.748;2023-02-02T01:35:45;99658.34;;;7.56;47.22
18527;BME280;9393;42.158;24.748;2023-02-02T01:38:50;99657.06;;;7.61;46.96
18527;BME280;9393;42.158;24.748;2023-02-02T01:41:54;99663.06;;;7.62;47.13
18527;BME280;9393;42.158;24.748;2023-02-02T01:45:12;99656.00;;;7.64;47.15
18527;BME280;9393;42.158;24.748;2023-02-02T01:48:19;99646.91;;;7.58;47.65
18527;BME280;9393;42.158;24.748;2023-02-02T01:51:29;99656.84;;;7.65;47.45
18527;BME280;9393;42.158;24.748;2023-02-02T01:54:36;99652.34;;;7.55;47.85
18527;BME280;9393;42.158;24.748;2023-02-02T01:57:43;99645.97;;;7.71;47.49
18527;BME280;9393;42.158;24.748;2023-02-02T02:00:47;99648.81;;;7.68;47.84
18527;BME280;9393;42.158;24.748;2023-02-02T02:03:52;99653.41;;;7.75;47.42
18527;BME280;9393;42.158;24.748;2023-02-02T02:06:59;99654.22;;;7.76;47.36
18527;BME280;9393;42.158;24.748;2023-02-02T02:10:06;99659.03;;;7.80;47.63
18527;BME280;9393;42.158;24.748;2023-02-02T02:13:10;99658.59;;;7.75;47.43
18527;BME280;9393;42.158;24.748;2023-02-02T02:16:19;99651.41;;;7.68;48.49
18527;BME280;9393;42.158;24.748;2023-02-02T02:23:57;99644.59;;;7.33;49.44
18527;BME280;9393;42.158;24.748;2023-02-02T02:28:00;99642.22;;;7.08;50.05
18527;BME280;9393;42.158;24.748;2023-02-02T02:34:52;99646.94;;;7.14;50.42
18527;BME280;9393;42.158;24.748;2023-02-02T02:38:03;99637.16;;;7.18;50.09
18527;BME280;9393;42.158;24.748;2023-02-02T02:41:16;99642.22;;;7.08;49.85
18527;BME280;9393;42.158;24.748;2023-02-02T02:44:21;99643.50;;;7.25;50.12
18527;BME280;9393;42.158;24.748;2023-02-02T02:47:28;99648.25;;;7.31;49.88
18527;BME280;9393;42.158;24.748;2023-02-02T02:50:34;99643.75;;;7.33;49.88
18527;BME280;9393;42.158;24.748;2023-02-02T02:53:37;99631.72;;;7.32;49.90
18527;BME280;9393;42.158;24.748;2023-02-02T02:56:53;99635.50;;;7.28;50.15
18527;BME280;9393;42.158;24.748;2023-02-02T03:00:06;99626.78;;;6.95;51.23
18527;BME280;9393;42.158;24.748;2023-02-02T03:03:20;99623.13;;;6.98;51.16
18527;BME280;9393;42.158;24.748;2023-02-02T03:06:33;99618.25;;;6.71;51.78
18527;BME280;9393;42.158;24.748;2023-02-02T03:09:41;99622.28;;;6.75;51.90
18527;BME280;9393;42.158;24.748;2023-02-02T03:12:47;99620.03;;;6.71;51.60
18527;BME280;9393;42.158;24.748;2023-02-02T03:15:51;99631.03;;;6.85;51.13
18527;BME280;9393;42.158;24.748;2023-02-02T03:18:55;99623.69;;;6.79;51.15
18527;BME280;9393;42.158;24.748;2023-02-02T03:22:01;99626.97;;;6.70;51.32
18527;BME280;9393;42.158;24.748;2023-02-02T03:25:05;99623.94;;;6.87;50.85
18527;BME280;9393;42.158;24.748;2023-02-02T03:28:12;99627.84;;;7.04;50.78
18527;BME280;9393;42.158;24.748;2023-02-02T03:31:17;99625.63;;;6.99;50.73
18527;BME280;9393;42.158;24.748;2023-02-02T03:34:20;99613.94;;;7.16;50.00
18527;BME280;9393;42.158;24.748;2023-02-02T03:37:25;99613.44;;;7.00;50.14
18527;BME280;9393;42.158;24.748;2023-02-02T03:40:29;99616.06;;;7.11;50.19
18527;BME280;9393;42.158;24.748;2023-02-02T03:43:33;99617.00;;;7.21;50.34
18527;BME280;9393;42.158;24.748;2023-02-02T03:46:36;99607.44;;;7.22;49.75
18527;BME280;9393;42.158;24.748;2023-02-02T03:49:40;99613.22;;;6.92;50.25
18527;BME280;9393;42.158;24.748;2023-02-02T03:52:45;99618.75;;;7.21;50.12
18527;BME280;9393;42.158;24.748;2023-02-02T03:55:48;99616.63;;;7.37;49.94
18527;BME280;9393;42.158;24.748;2023-02-02T03:58:52;99614.25;;;7.45;49.69
18527;BME280;9393;42.158;24.748;2023-02-02T04:01:55;99615.91;;;7.46;49.59
18527;BME280;9393;42.158;24.748;2023-02-02T04:04:59;99617.09;;;7.42;49.29
18527;BME280;9393;42.158;24.748;2023-02-02T04:08:04;99610.97;;;7.43;49.76
18527;BME280;9393;42.158;24.748;2023-02-02T04:11:08;99606.09;;;7.60;49.00
18527;BME280;9393;42.158;24.748;2023-02-02T04:14:12;99616.25;;;7.41;49.35
18527;BME280;9393;42.158;24.748;2023-02-02T04:17:16;99620.63;;;7.52;49.43
18527;BME280;9393;42.158;24.748;2023-02-02T04:20:20;99624.63;;;7.67;48.91
18527;BME280;9393;42.158;24.748;2023-02-02T04:23:25;99618.50;;;7.57;48.86
18527;BME280;9393;42.158;24.748;2023-02-02T04:26:29;99627.31;;;7.66;49.08
18527;BME280;9393;42.158;24.748;2023-02-02T04:29:33;99625.19;;;7.71;49.01
18527;BME280;9393;42.158;24.748;2023-02-02T04:32:36;99633.09;;;7.69;48.60
18527;BME280;9393;42.158;24.748;2023-02-02T04:35:41;99634.50;;;7.73;48.50
18527;BME280;9393;42.158;24.748;2023-02-02T04:38:49;99638.88;;;7.73;48.37
18527;BME280;9393;42.158;24.748;2023-02-02T04:41:53;99637.00;;;7.75;48.32
18527;BME280;9393;42.158;24.748;2023-02-02T04:44:56;99644.19;;;7.71;48.62
18527;BME280;9393;42.158;24.748;2023-02-02T04:48:00;99646.22;;;7.56;48.92
18527;BME280;9393;42.158;24.748;2023-02-02T04:51:06;99649.97;;;7.63;48.67
18527;BME280;9393;42.158;24.748;2023-02-02T04:54:11;99651.41;;;7.45;49.41
18527;BME280;9393;42.158;24.748;2023-02-02T04:57:15;99655.06;;;7.43;49.17
18527;BME280;9393;42.158;24.748;2023-02-02T05:00:19;99655.56;;;7.26;49.52
18527;BME280;9393;42.158;24.748;2023-02-02T05:03:23;99662.63;;;7.24;49.67
18527;BME280;9393;42.158;24.748;2023-02-02T05:06:26;99657.66;;;6.98;50.49
18527;BME280;9393;42.158;24.748;2023-02-02T05:09:31;99666.16;;;7.11;49.89
18527;BME280;9393;42.158;24.748;2023-02-02T05:12:35;99671.81;;;7.17;49.74
18527;BME280;9393;42.158;24.748;2023-02-02T05:15:38;99663.31;;;7.03;50.10
18527;BME280;9393;42.158;24.748;2023-02-02T05:18:42;99673.47;;;7.29;49.52
18527;BME280;9393;42.158;24.748;2023-02-02T05:21:46;99675.47;;;7.25;49.16
18527;BME280;9393;42.158;24.748;2023-02-02T05:24:53;99676.06;;;7.18;49.37
18527;BME280;9393;42.158;24.748;2023-02-02T05:27:57;99673.00;;;7.24;49.36
18527;BME280;9393;42.158;24.748;2023-02-02T05:31:04;99679.00;;;7.24;49.44
18527;BME280;9393;42.158;24.748;2023-02-02T05:34:08;99684.31;;;7.23;49.44
18527;BME280;9393;42.158;24.748;2023-02-02T05:37:12;99684.09;;;7.37;48.91
18527;BME280;9393;42.158;24.748;2023-02-02T05:40:17;99690.19;;;7.02;49.45
18527;BME280;9393;42.158;24.748;2023-02-02T05:43:23;99683.25;;;7.14;49.12
18527;BME280;9393;42.158;24.748;2023-02-02T05:46:27;99679.81;;;7.02;49.67
18527;BME280;9393;42.158;24.748;2023-02-02T05:49:31;99682.19;;;7.05;49.56
18527;BME280;9393;42.158;24.748;2023-02-02T05:52:36;99680.06;;;7.22;49.36
18527;BME280;9393;42.158;24.748;2023-02-02T05:55:42;99688.78;;;7.32;48.83
18527;BME280;9393;42.158;24.748;2023-02-02T05:58:46;99695.31;;;7.37;49.24
18527;BME280;9393;42.158;24.748;2023-02-02T06:01:51;99688.44;;;7.36;49.28
18527;BME280;9393;42.158;24.748;2023-02-02T06:04:54;99691.75;;;7.49;48.77
18527;BME280;9393;42.158;24.748;2023-02-02T06:07:58;99689.50;;;7.45;48.93
18527;BME280;9393;42.158;24.748;2023-02-02T06:11:09;99700.38;;;7.61;48.78
18527;BME280;9393;42.158;24.748;2023-02-02T06:14:13;99699.16;;;7.76;48.29
18527;BME280;9393;42.158;24.748;2023-02-02T06:17:17;99701.72;;;7.98;47.59
18527;BME280;9393;42.158;24.748;2023-02-02T06:20:20;99705.91;;;8.33;46.74
18527;BME280;9393;42.158;24.748;2023-02-02T06:23:24;99708.94;;;8.70;46.39
18527;BME280;9393;42.158;24.748;2023-02-02T06:26:30;99724.25;;;9.04;45.35
18527;BME280;9393;42.158;24.748;2023-02-02T06:29:33;99729.03;;;8.99;45.52
18527;BME280;9393;42.158;24.748;2023-02-02T06:32:37;99722.34;;;8.65;45.84
18527;BME280;9393;42.158;24.748;2023-02-02T06:35:41;99720.75;;;8.74;45.85
18527;BME280;9393;42.158;24.748;2023-02-02T06:38:47;99721.38;;;8.66;46.29
18527;BME280;9393;42.158;24.748;2023-02-02T06:41:53;99714.47;;;8.76;46.40
18527;BME280;9393;42.158;24.748;2023-02-02T06:44:56;99724.25;;;9.04;45.83
18527;BME280;9393;42.158;24.748;2023-02-02T06:48:00;99711.72;;;9.40;44.52
18527;BME280;9393;42.158;24.748;2023-02-02T06:51:05;99711.44;;;9.83;44.03
18527;BME280;9393;42.158;24.748;2023-02-02T06:54:09;99723.03;;;9.99;43.46
18527;BME280;9393;42.158;24.748;2023-02-02T06:57:14;99712.56;;;10.49;42.88
18527;BME280;9393;42.158;24.748;2023-02-02T07:00:19;99714.47;;;10.47;42.22
18527;BME280;9393;42.158;24.748;2023-02-02T07:03:23;99718.03;;;9.87;43.28
18527;BME280;9393;42.158;24.748;2023-02-02T07:06:28;99726.63;;;9.38;44.57
18527;BME280;9393;42.158;24.748;2023-02-02T07:09:32;99738.84;;;8.96;45.42
18527;BME280;9393;42.158;24.748;2023-02-02T07:12:37;99736.78;;;9.41;44.97
18527;BME280;9393;42.158;24.748;2023-02-02T07:15:41;99744.41;;;9.33;44.68
18527;BME280;9393;42.158;24.748;2023-02-02T07:18:45;99738.84;;;9.17;45.21
18527;BME280;9393;42.158;24.748;2023-02-02T07:21:50;99740.72;;;9.65;44.24
18527;BME280;9393;42.158;24.748;2023-02-02T07:24:54;99741.13;;;10.01;43.65
18527;BME280;9393;42.158;24.748;2023-02-02T07:27:59;99737.78;;;10.39;42.97
18527;BME280;9393;42.158;24.748;2023-02-02T07:31:12;99725.75;;;10.57;42.64
18527;BME280;9393;42.158;24.748;2023-02-02T07:34:16;99723.94;;;10.96;41.98
18527;BME280;9393;42.158;24.748;2023-02-02T07:37:20;99733.25;;;11.08;41.63
18527;BME280;9393;42.158;24.748;2023-02-02T07:40:23;99732.66;;;11.33;41.20
18527;BME280;9393;42.158;24.748;2023-02-02T07:43:29;99728.09;;;11.35;40.57
18527;BME280;9393;42.158;24.748;2023-02-02T07:46:32;99741.16;;;11.35;40.84
18527;BME280;9393;42.158;24.748;2023-02-02T07:49:37;99739.06;;;12.12;39.62
18527;BME280;9393;42.158;24.748;2023-02-02T07:52:41;99733.59;;;12.51;39.00
18527;BME280;9393;42.158;24.748;2023-02-02T07:55:44;99739.41;;;12.45;38.68
18527;BME280;9393;42.158;24.748;2023-02-02T07:58:50;99742.66;;;11.84;39.75
18527;BME280;9393;42.158;24.748;2023-02-02T08:01:54;99738.09;;;11.49;40.41
18527;BME280;9393;42.158;24.748;2023-02-02T08:04:58;99741.06;;;11.18;41.26
18527;BME280;9393;42.158;24.748;2023-02-02T08:08:02;99740.81;;;11.01;41.66
18527;BME280;9393;42.158;24.748;2023-02-02T08:11:08;99736.38;;;11.21;41.37
18527;BME280;9393;42.158;24.748;2023-02-02T08:14:13;99735.59;;;11.57;40.96
18527;BME280;9393;42.158;24.748;2023-02-02T08:17:17;99729.53;;;12.39;39.54
18527;BME280;9393;42.158;24.748;2023-02-02T08:20:21;99730.88;;;12.43;39.52
18527;BME280;9393;42.158;24.748;2023-02-02T08:23:25;99724.91;;;11.51;40.23
18527;BME280;9393;42.158;24.748;2023-02-02T08:26:29;99728.69;;;11.20;40.95
18527;BME280;9393;42.158;24.748;2023-02-02T08:29:35;99720.41;;;10.68;41.62
18527;BME280;9393;42.158;24.748;2023-02-02T08:32:39;99724.28;;;11.30;40.90
18527;BME280;9393;42.158;24.748;2023-02-02T08:35:43;99715.66;;;11.93;39.70
18527;BME280;9393;42.158;24.748;2023-02-02T08:38:48;99730.97;;;12.33;39.43
18527;BME280;9393;42.158;24.748;2023-02-02T08:41:53;99726.28;;;12.72;38.52
18527;BME280;9393;42.158;24.748;2023-02-02T08:44:59;99725.03;;;13.02;38.22
18527;BME280;9393;42.158;24.748;2023-02-02T08:48:22;99724.94;;;12.94;37.83
18527;BME280;9393;42.158;24.748;2023-02-02T08:51:26;99724.16;;;13.45;37.10
18527;BME280;9393;42.158;24.748;2023-02-02T08:54:30;99730.13;;;13.89;36.76
18527;BME280;9393;42.158;24.748;2023-02-02T08:57:34;99720.09;;;13.84;36.35
18527;BME280;9393;42.158;24.748;2023-02-02T09:00:39;99717.28;;;14.28;35.84
18527;BME280;9393;42.158;24.748;2023-02-02T09:03:43;99721.63;;;14.61;35.23
18527;BME280;9393;42.158;24.748;2023-02-02T09:06:47;99707.34;;;14.88;35.29
18527;BME280;9393;42.158;24.748;2023-02-02T09:09:51;99704.72;;;15.20;34.41
18527;BME280;9393;42.158;24.748;2023-02-02T09:12:56;99694.84;;;15.14;33.89
18527;BME280;9393;42.158;24.748;2023-02-02T09:16:03;99688.72;;;15.38;34.00
18527;BME280;9393;42.158;24.748;2023-02-02T09:19:09;99689.63;;;15.69;33.57
18527;BME280;9393;42.158;24.748;2023-02-02T09:22:13;99677.44;;;15.76;33.08
18527;BME280;9393;42.158;24.748;2023-02-02T09:25:16;99677.31;;;16.00;33.05
18527;BME280;9393;42.158;24.748;2023-02-02T09:28:20;99671.66;;;16.11;32.58
18527;BME280;9393;42.158;24.748;2023-02-02T09:31:25;99667.88;;;15.83;32.81
18527;BME280;9393;42.158;24.748;2023-02-02T09:34:29;99647.03;;;16.04;32.41
18527;BME280;9393;42.158;24.748;2023-02-02T09:37:33;99658.53;;;16.03;32.17
18527;BME280;9393;42.158;24.748;2023-02-02T09:40:39;99661.06;;;14.95;33.25
18527;BME280;9393;42.158;24.748;2023-02-02T09:43:48;99651.00;;;15.14;33.27
18527;BME280;9393;42.158;24.748;2023-02-02T09:47:02;99653.69;;;15.06;33.28
18527;BME280;9393;42.158;24.748;2023-02-02T09:50:15;99642.50;;;15.04;33.59
18527;BME280;9393;42.158;24.748;2023-02-02T09:53:28;99643.22;;;14.74;33.93
18527;BME280;9393;42.158;24.748;2023-02-02T09:56:40;99636.19;;;14.50;34.60
18527;BME280;9393;42.158;24.748;2023-02-02T09:59:47;99624.16;;;14.80;34.20
18527;BME280;9393;42.158;24.748;2023-02-02T10:02:57;99626.78;;;14.72;34.01
18527;BME280;9393;42.158;24.748;2023-02-02T10:06:10;99616.25;;;14.96;34.07
18527;BME280;9393;42.158;24.748;2023-02-02T10:09:29;99601.16;;;14.90;34.35
18527;BME280;9393;42.158;24.748;2023-02-02T10:12:38;99593.38;;;15.60;33.83
18527;BME280;9393;42.158;24.748;2023-02-02T10:15:53;99591.59;;;15.83;33.30
18527;BME280;9393;42.158;24.748;2023-02-02T10:19:07;99583.19;;;15.65;33.45
18527;BME280;9393;42.158;24.748;2023-02-02T10:22:16;99572.88;;;16.09;32.94
18527;BME280;9393;42.158;24.748;2023-02-02T10:25:25;99570.75;;;16.04;33.13
18527;BME280;9393;42.158;24.748;2023-02-02T10:28:51;99568.31;;;16.03;31.96
18527;BME280;9393;42.158;24.748;2023-02-02T10:32:05;99568.81;;;16.21;31.51
18527;BME280;9393;42.158;24.748;2023-02-02T10:35:28;99561.16;;;16.11;31.44
18527;BME280;9393;42.158;24.748;2023-02-02T10:38:37;99561.75;;;16.22;31.35
18527;BME280;9393;42.158;24.748;2023-02-02T10:41:48;99561.63;;;16.15;31.33
18527;BME280;9393;42.158;24.748;2023-02-02T10:44:58;99562.25;;;16.40;30.91
18527;BME280;9393;42.158;24.748;2023-02-02T10:48:12;99550.38;;;16.21;31.50
18527;BME280;9393;42.158;24.748;2023-02-02T10:51:21;99546.88;;;16.29;31.57
18527;BME280;9393;42.158;24.748;2023-02-02T10:54:36;99534.69;;;16.50;31.01
18527;BME280;9393;42.158;24.748;2023-02-02T10:58:05;99524.38;;;16.63;30.89
18527;BME280;9393;42.158;24.748;2023-02-02T11:01:14;99524.97;;;16.51;31.08
18527;BME280;9393;42.158;24.748;2023-02-02T11:04:21;99517.22;;;16.35;31.63
18527;BME280;9393;42.158;24.748;2023-02-02T11:07:43;99516.44;;;16.11;31.72
18527;BME280;9393;42.158;24.748;2023-02-02T11:10:51;99510.50;;;15.95;32.05
18527;BME280;9393;42.158;24.748;2023-02-02T11:13:58;99494.66;;;15.80;32.27
18527;BME280;9393;42.158;24.748;2023-02-02T11:17:04;99483.50;;;15.55;32.29
18527;BME280;9393;42.158;24.748;2023-02-02T11:20:22;99486.88;;;16.09;31.65
18527;BME280;9393;42.158;24.748;2023-02-02T11:23:28;99465.69;;;16.40;31.49
18527;BME280;9393;42.158;24.748;2023-02-02T11:26:42;99458.72;;;16.62;31.21
18527;BME280;9393;42.158;24.748;2023-02-02T11:29:49;99444.19;;;16.37;31.80
18527;BME280;9393;42.158;24.748;2023-02-02T11:32:54;99433.00;;;16.20;32.26
18527;BME280;9393;42.158;24.748;2023-02-02T11:35:59;99431.94;;;16.44;31.25
18527;BME280;9393;42.158;24.748;2023-02-02T11:39:22;99422.56;;;16.85;29.79
18527;BME280;9393;42.158;24.748;2023-02-02T11:42:26;99426.16;;;16.99;29.37
18527;BME280;9393;42.158;24.748;2023-02-02T11:45:33;99411.47;;;16.31;29.61
18527;BME280;9393;42.158;24.748;2023-02-02T11:48:38;99400.22;;;16.81;29.20
18527;BME280;9393;42.158;24.748;2023-02-02T11:52:00;99393.91;;;16.97;29.17
18527;BME280;9393;42.158;24.748;2023-02-02T11:55:14;99397.97;;;16.78;29.46
18527;BME280;9393;42.158;24.748;2023-02-02T11:58:22;99393.25;;;16.44;29.56
18527;BME280;9393;42.158;24.748;2023-02-02T12:01:32;99390.09;;;16.20;28.88
18527;BME280;9393;42.158;24.748;2023-02-02T12:04:36;99395.25;;;16.28;28.66
18527;BME280;9393;42.158;24.748;2023-02-02T12:07:41;99387.19;;;15.62;29.54
18527;BME280;9393;42.158;24.748;2023-02-02T12:10:52;99387.66;;;15.43;30.21
18527;BME280;9393;42.158;24.748;2023-02-02T12:14:06;99395.00;;;15.25;30.85
18527;BME280;9393;42.158;24.748;2023-02-02T12:17:24;99394.44;;;15.07;31.09
18527;BME280;9393;42.158;24.748;2023-02-02T12:20:38;99388.22;;;15.08;30.54
18527;BME280;9393;42.158;24.748;2023-02-02T12:23:51;99378.22;;;14.81;30.75
18527;BME280;9393;42.158;24.748;2023-02-02T12:27:09;99383.22;;;14.90;31.18
18527;BME280;9393;42.158;24.748;2023-02-02T12:30:26;99386.66;;;14.99;31.19
18527;BME280;9393;42.158;24.748;2023-02-02T12:33:37;99383.63;;;14.79;31.44
18527;BME280;9393;42.158;24.748;2023-02-02T12:36:49;99383.66;;;14.40;31.28
18527;BME280;9393;42.158;24.748;2023-02-02T12:40:06;99377.94;;;14.37;31.73
18527;BME280;9393;42.158;24.748;2023-02-02T12:43:31;99388.75;;;14.17;31.82
18527;BME280;9393;42.158;24.748;2023-02-02T12:46:56;99366.81;;;14.18;32.21
18527;BME280;9393;42.158;24.748;2023-02-02T12:50:11;99367.84;;;14.01;31.90
18527;BME280;9393;42.158;24.748;2023-02-02T12:53:37;99364.88;;;14.04;31.41
18527;BME280;9393;42.158;24.748;2023-02-02T12:56:48;99368.47;;;14.03;31.77
18527;BME280;9393;42.158;24.748;2023-02-02T13:00:06;99357.97;;;14.11;30.92
18527;BME280;9393;42.158;24.748;2023-02-02T13:03:35;99376.13;;;14.21;31.17
18527;BME280;9393;42.158;24.748;2023-02-02T13:06:54;99357.53;;;13.92;31.58
18527;BME280;9393;42.158;24.748;2023-02-02T13:10:17;99346.34;;;14.06;31.62
18527;BME280;9393;42.158;24.748;2023-02-02T13:13:28;99346.22;;;13.91;31.93
18527;BME280;9393;42.158;24.748;2023-02-02T13:16:37;99334.25;;;13.97;32.10
18527;BME280;9393;42.158;24.748;2023-02-02T13:19:45;99339.69;;;13.87;32.08
18527;BME280;9393;42.158;24.748;2023-02-02T13:22:53;99334.34;;;13.64;32.20
18527;BME280;9393;42.158;24.748;2023-02-02T13:26:03;99325.94;;;13.69;31.79
18527;BME280;9393;42.158;24.748;2023-02-02T13:29:18;99326.47;;;14.20;31.40
18527;BME280;9393;42.158;24.748;2023-02-02T13:32:30;99318.88;;;14.41;31.35
18527;BME280;9393;42.158;24.748;2023-02-02T13:35:39;99318.97;;;14.16;31.53
18527;BME280;9393;42.158;24.748;2023-02-02T13:38:44;99333.81;;;14.40;31.44
18527;BME280;9393;42.158;24.748;2023-02-02T13:41:48;99321.56;;;14.55;31.31
18527;BME280;9393;42.158;24.748;2023-02-02T13:44:59;99320.50;;;14.73;30.92
18527;BME280;9393;42.158;24.748;2023-02-02T13:48:15;99327.38;;;14.74;30.31
18527;BME280;9393;42.158;24.748;2023-02-02T13:51:42;99326.41;;;14.44;30.21
18527;BME280;9393;42.158;24.748;2023-02-02T13:55:06;99316.94;;;14.27;30.70
18527;BME280;9393;42.158;24.748;2023-02-02T13:58:31;99304.41;;;14.06;30.15
18527;BME280;9393;42.158;24.748;2023-02-02T14:01:36;99314.13;;;13.89;30.97
18527;BME280;9393;42.158;24.748;2023-02-02T14:04:51;99344.31;;;13.45;35.38
18527;BME280;9393;42.158;24.748;2023-02-02T14:07:58;99335.25;;;12.83;39.87
18527;BME280;9393;42.158;24.748;2023-02-02T14:11:06;99349.31;;;12.32;43.67
18527;BME280;9393;42.158;24.748;2023-02-02T14:14:15;99357.09;;;12.57;43.81
18527;BME280;9393;42.158;24.748;2023-02-02T14:17:53;99350.06;;;12.50;44.71
18527;BME280;9393;42.158;24.748;2023-02-02T14:20:59;99337.66;;;12.60;44.92
18527;BME280;9393;42.158;24.748;2023-02-02T14:24:03;99341.56;;;12.56;44.89
18527;BME280;9393;42.158;24.748;2023-02-02T14:27:54;99342.75;;;12.61;44.78
18527;BME280;9393;42.158;24.748;2023-02-02T14:34:35;99353.03;;;12.63;43.55
18527;BME280;9393;42.158;24.748;2023-02-02T14:37:47;99354.16;;;12.60;42.77
18527;BME280;9393;42.158;24.748;2023-02-02T14:40:57;99363.16;;;12.58;42.25
18527;BME280;9393;42.158;24.748;2023-02-02T14:44:06;99371.78;;;12.50;42.29
18527;BME280;9393;42.158;24.748;2023-02-02T14:47:45;99371.09;;;12.40;42.68
18527;BME280;9393;42.158;24.748;2023-02-02T14:50:51;99383.69;;;12.45;43.13
18527;BME280;9393;42.158;24.748;2023-02-02T14:53:58;99385.50;;;12.44;43.84
18527;BME280;9393;42.158;24.748;2023-02-02T14:57:25;99389.91;;;12.44;44.17
18527;BME280;9393;42.158;24.748;2023-02-02T15:00:32;99380.28;;;12.44;44.59
18527;BME280;9393;42.158;24.748;2023-02-02T15:03:49;99375.00;;;12.36;45.25
18527;BME280;9393;42.158;24.748;2023-02-02T15:06:54;99370.47;;;12.46;45.06
18527;BME280;9393;42.158;24.748;2023-02-02T15:09:59;99377.03;;;12.50;45.37
18527;BME280;9393;42.158;24.748;2023-02-02T15:13:05;99376.84;;;12.52;45.50
18527;BME280;9393;42.158;24.748;2023-02-02T15:16:21;99367.88;;;12.12;46.93
18527;BME280;9393;42.158;24.748;2023-02-02T15:19:30;99369.88;;;11.93;47.78
18527;BME280;9393;42.158;24.748;2023-02-02T15:22:40;99388.63;;;11.88;48.11
18527;BME280;9393;42.158;24.748;2023-02-02T15:25:50;99396.63;;;11.87;48.14
18527;BME280;9393;42.158;24.748;2023-02-02T15:28:58;99400.75;;;11.97;47.81
18527;BME280;9393;42.158;24.748;2023-02-02T15:32:04;99407.81;;;11.79;48.14
18527;BME280;9393;42.158;24.748;2023-02-02T15:35:16;99413.66;;;11.73;48.56
18527;BME280;9393;42.158;24.748;2023-02-02T15:38:23;99412.59;;;11.66;48.77
18527;BME280;9393;42.158;24.748;2023-02-02T15:41:36;99414.88;;;11.79;48.47
18527;BME280;9393;42.158;24.748;2023-02-02T15:44:45;99416.25;;;11.55;49.20
18527;BME280;9393;42.158;24.748;2023-02-02T15:47:48;99425.41;;;11.51;49.21
18527;BME280;9393;42.158;24.748;2023-02-02T15:50:53;99445.16;;;11.54;49.01
18527;BME280;9393;42.158;24.748;2023-02-02T15:53:57;99456.03;;;11.67;48.62
18527;BME280;9393;42.158;24.748;2023-02-02T15:57:03;99465.75;;;11.57;48.44
18527;BME280;9393;42.158;24.748;2023-02-02T16:00:26;99477.53;;;11.61;48.81
18527;BME280;9393;42.158;24.748;2023-02-02T16:03:39;99473.88;;;11.54;48.61
18527;BME280;9393;42.158;24.748;2023-02-02T16:06:46;99482.84;;;11.34;48.97
18527;BME280;9393;42.158;24.748;2023-02-02T16:09:51;99490.16;;;11.48;48.80
18527;BME280;9393;42.158;24.748;2023-02-02T16:12:57;99512.13;;;11.28;49.28
18527;BME280;9393;42.158;24.748;2023-02-02T16:16:02;99550.50;;;10.90;50.29
18527;BME280;9393;42.158;24.748;2023-02-02T16:19:17;99576.81;;;10.60;50.82
18527;BME280;9393;42.158;24.748;2023-02-02T16:22:23;99613.34;;;10.22;53.30
18527;BME280;9393;42.158;24.748;2023-02-02T16:25:30;99648.75;;;10.14;55.44
18527;BME280;9393;42.158;24.748;2023-02-02T16:28:37;99664.78;;;9.60;63.39
18527;BME280;9393;42.158;24.748;2023-02-02T16:31:43;99662.13;;;8.90;70.13
18527;BME280;9393;42.158;24.748;2023-02-02T16:34:47;99682.41;;;8.34;73.16
18527;BME280;9393;42.158;24.748;2023-02-02T16:37:51;99675.00;;;8.19;74.13
18527;BME280;9393;42.158;24.748;2023-02-02T16:41:05;99690.50;;;7.98;75.97
18527;BME280;9393;42.158;24.748;2023-02-02T16:44:35;99691.94;;;7.91;78.41
18527;BME280;9393;42.158;24.748;2023-02-02T16:47:39;99702.00;;;8.27;73.89
18527;BME280;9393;42.158;24.748;2023-02-02T16:50:45;99721.56;;;8.53;71.81
18527;BME280;9393;42.158;24.748;2023-02-02T16:53:59;99706.53;;;8.57;70.26